sensor_id;sensor_type;location;lat;lon;timestamp;pressure;altitude;pressure_sealevel;temperature;humidity
38452;BME280;24231;52.514;13.438;2023-03-17T00:03:04;101345.61;;;3.97;45.89
38452;BME280;24231;52.514;13.438;2023-03-17T00:05:34;101348.90;;;3.80;46.27
38452;BME280;24231;52.514;13.438;2023-03-17T00:08:06;101337.21;;;3.75;46.47
38452;BME280;24231;52.514;13.438;2023-03-17T00:10:36;101338.22;;;3.86;46.56
38452;BME280;24231;52.514;13.438;2023-03-17T00:13:04;101333.86;;;3.68;47.10
38452;BME280;24231;52.514;13.438;2023-03-17T00:15:31;101326.08;;;4.63;49.68
38452;BME280;24231;52.514;13.438;2023-03-17T00:17:58;101332.67;;;4.47;46.80
38452;BME280;24231;52.514;13.438;2023-03-17T00:20:27;101332.26;;;3.85;46.81
38452;BME280;24231;52.514;13.438;2023-03-17T00:22:55;101331.14;;;3.72;46.95
38452;BME280;24231;52.514;13.438;2023-03-17T00:25:25;101333.61;;;3.78;46.90
38452;BME280;24231;52.514;13.438;2023-03-17T00:27:53;101327.66;;;3.89;46.69
38452;BME280;24231;52.514;13.438;2023-03-17T00:30:21;101321.79;;;3.90;46.71
38452;BME280;24231;52.514;13.438;2023-03-17T00:32:50;101318.54;;;3.58;47.14
38452;BME280;24231;52.514;13.438;2023-03-17T00:35:21;101316.33;;;3.49;47.73
38452;BME280;24231;52.514;13.438;2023-03-17T00:37:50;101312.60;;;3.54;47.78
38452;BME280;24231;52.514;13.438;2023-03-17T00:40:21;101307.86;;;3.55;47.38
38452;BME280;24231;52.514;13.438;2023-03-17T00:43:03;101306.45;;;3.73;47.41
38452;BME280;24231;52.514;13.438;2023-03-17T00:45:41;101298.68;;;3.57;47.31
38452;BME280;24231;52.514;13.438;2023-03-17T00:48:12;101289.26;;;3.70;46.74
38452;BME280;24231;52.514;13.438;2023-03-17T00:50:40;101286.09;;;3.59;47.40
38452;BME280;24231;52.514;13.438;2023-03-17T00:53:10;101281.37;;;3.21;47.89
38452;BME280;24231;52.514;13.438;2023-03-17T00:55:37;101282.59;;;3.32;47.78
38452;BME280;24231;52.514;13.438;2023-03-17T00:58:11;101270.26;;;3.46;47.80
38452;BME280;24231;52.514;13.438;2023-03-17T01:00:38;101267.10;;;3.57;48.08
38452;BME280;24231;52.514;13.438;2023-03-17T01:03:09;101259.78;;;3.52;48.29
38452;BME280;24231;52.514;13.438;2023-03-17T01:05:38;101256.33;;;3.44;48.16
38452;BME280;24231;52.514;13.438;2023-03-17T01:08:06;101258.88;;;3.54;48.00
38452;BME280;24231;52.514;13.438;2023-03-17T01:10:34;101263.23;;;3.45;48.36
38452;BME280;24231;52.514;13.438;2023-03-17T01:13:01;101266.25;;;3.54;48.26
38452;BME280;24231;52.514;13.438;2023-03-17T01:15:30;101267.98;;;3.61;47.91
38452;BME280;24231;52.514;13.438;2023-03-17T01:18:03;101254.90;;;3.72;47.76
38452;BME280;24231;52.514;13.438;2023-03-17T01:20:32;101251.53;;;3.54;47.92
38452;BME280;24231;52.514;13.438;2023-03-17T01:23:00;101246.51;;;3.63;48.02
38452;BME280;24231;52.514;13.438;2023-03-17T01:25:29;101251.40;;;3.51;48.50
38452;BME280;24231;52.514;13.438;2023-03-17T01:27:58;101251.80;;;3.53;48.41
38452;BME280;24231;52.514;13.438;2023-03-17T01:30:27;101244.10;;;3.61;48.24
38452;BME280;24231;52.514;13.438;2023-03-17T01:32:56;101240.00;;;3.45;48.61
38452;BME280;24231;52.514;13.438;2023-03-17T01:35:24;101240.83;;;3.32;49.39
38452;BME280;24231;52.514;13.438;2023-03-17T01:37:52;101229.39;;;3.87;48.13
38452;BME280;24231;52.514;13.438;2023-03-17T01:40:21;101237.99;;;3.32;49.62
38452;BME280;24231;52.514;13.438;2023-03-17T01:42:52;101231.15;;;3.33;49.24
38452;BME280;24231;52.514;13.438;2023-03-17T01:46:27;101221.05;;;3.33;49.57
38452;BME280;24231;52.514;13.438;2023-03-17T01:49:08;101220.20;;;3.53;49.04
38452;BME280;24231;52.514;13.438;2023-03-17T01:51:41;101231.92;;;3.29;49.90
38452;BME280;24231;52.514;13.438;2023-03-17T01:54:15;101212.69;;;3.43;49.56
38452;BME280;24231;52.514;13.438;2023-03-17T01:56:45;101215.40;;;3.38;50.14
38452;BME280;24231;52.514;13.438;2023-03-17T01:59:17;101207.62;;;3.49;49.35
38452;BME280;24231;52.514;13.438;2023-03-17T02:01:47;101208.50;;;3.14;50.79
38452;BME280;24231;52.514;13.438;2023-03-17T02:04:15;101202.45;;;3.38;50.33
38452;BME280;24231;52.514;13.438;2023-03-17T02:06:44;101201.92;;;3.10;50.60
38452;BME280;24231;52.514;13.438;2023-03-17T02:09:13;101216.80;;;3.19;50.87
38452;BME280;24231;52.514;13.438;2023-03-17T02:11:40;101204.43;;;3.24;50.70
38452;BME280;24231;52.514;13.438;2023-03-17T02:14:07;101197.38;;;3.52;50.25
38452;BME280;24231;52.514;13.438;2023-03-17T02:16:34;101197.78;;;3.15;50.68
38452;BME280;24231;52.514;13.438;2023-03-17T02:19:02;101197.50;;;3.14;51.00
38452;BME280;24231;52.514;13.438;2023-03-17T02:21:35;101202.16;;;2.93;51.38
38452;BME280;24231;52.514;13.438;2023-03-17T02:24:08;101191.69;;;3.24;50.59
38452;BME280;24231;52.514;13.438;2023-03-17T02:26:36;101194.89;;;3.05;51.18
38452;BME280;24231;52.514;13.438;2023-03-17T02:29:04;101189.17;;;3.08;51.10
38452;BME280;24231;52.514;13.438;2023-03-17T02:31:44;101196.14;;;3.22;50.61
38452;BME280;24231;52.514;13.438;2023-03-17T02:34:11;101187.12;;;3.12;50.71
38452;BME280;24231;52.514;13.438;2023-03-17T02:36:39;101188.76;;;2.91;50.92
38452;BME280;24231;52.514;13.438;2023-03-17T02:39:07;101181.51;;;2.97;50.65
38452;BME280;24231;52.514;13.438;2023-03-17T02:41:34;101176.10;;;3.00;50.60
38452;BME280;24231;52.514;13.438;2023-03-17T02:44:02;101179.43;;;3.01;50.82
38452;BME280;24231;52.514;13.438;2023-03-17T02:46:29;101178.93;;;3.13;50.75
38452;BME280;24231;52.514;13.438;2023-03-17T02:49:10;101167.67;;;3.27;50.08
38452;BME280;24231;52.514;13.438;2023-03-17T02:51:38;101169.39;;;3.19;50.20
38452;BME280;24231;52.514;13.438;2023-03-17T02:54:05;101169.02;;;3.16;50.64
38452;BME280;24231;52.514;13.438;2023-03-17T02:56:32;101175.75;;;3.02;51.06
38452;BME280;24231;52.514;13.438;2023-03-17T02:59:00;101165.88;;;2.97;50.90
38452;BME280;24231;52.514;13.438;2023-03-17T03:01:27;101169.36;;;3.06;50.87
38452;BME280;24231;52.514;13.438;2023-03-17T03:03:54;101168.55;;;3.16;50.41
38452;BME280;24231;52.514;13.438;2023-03-17T03:06:21;101165.39;;;3.05;50.59
38452;BME280;24231;52.514;13.438;2023-03-17T03:08:48;101161.98;;;3.06;50.35
38452;BME280;24231;52.514;13.438;2023-03-17T03:11:16;101160.87;;;3.06;50.60
38452;BME280;24231;52.514;13.438;2023-03-17T03:13:43;101165.61;;;2.96;50.68
38452;BME280;24231;52.514;13.438;2023-03-17T03:16:11;101170.61;;;2.90;50.79
38452;BME280;24231;52.514;13.438;2023-03-17T03:18:38;101167.30;;;3.09;50.07
38452;BME280;24231;52.514;13.438;2023-03-17T03:21:05;101177.71;;;3.12;50.18
38452;BME280;24231;52.514;13.438;2023-03-17T03:23:33;101187.24;;;3.06;50.24
38452;BME280;24231;52.514;13.438;2023-03-17T03:26:00;101180.81;;;3.03;50.32
38452;BME280;24231;52.514;13.438;2023-03-17T03:28:28;101181.66;;;3.11;49.99
38452;BME280;24231;52.514;13.438;2023-03-17T03:30:55;101198.05;;;3.03;50.02
38452;BME280;24231;52.514;13.438;2023-03-17T03:33:24;101201.65;;;2.97;49.95
38452;BME280;24231;52.514;13.438;2023-03-17T03:35:51;101194.86;;;2.94;49.98
38452;BME280;24231;52.514;13.438;2023-03-17T03:38:18;101184.54;;;3.11;49.49
38452;BME280;24231;52.514;13.438;2023-03-17T03:40:45;101185.78;;;2.94;49.89
38452;BME280;24231;52.514;13.438;2023-03-17T03:43:18;101189.12;;;3.06;50.12
38452;BME280;24231;52.514;13.438;2023-03-17T03:45:45;101182.63;;;3.12;50.07
38452;BME280;24231;52.514;13.438;2023-03-17T03:48:13;101170.34;;;3.28;49.19
38452;BME280;24231;52.514;13.438;2023-03-17T03:50:40;101173.74;;;3.17;49.23
38452;BME280;24231;52.514;13.438;2023-03-17T03:53:07;101171.60;;;3.33;48.81
38452;BME280;24231;52.514;13.438;2023-03-17T03:55:35;101169.70;;;3.21;48.97
38452;BME280;24231;52.514;13.438;2023-03-17T03:58:01;101179.60;;;3.30;48.87
38452;BME280;24231;52.514;13.438;2023-03-17T04:00:29;101173.32;;;3.14;49.30
38452;BME280;24231;52.514;13.438;2023-03-17T04:02:56;101172.74;;;3.31;48.69
38452;BME280;24231;52.514;13.438;2023-03-17T04:05:23;101178.36;;;3.34;49.03
38452;BME280;24231;52.514;13.438;2023-03-17T04:07:51;101179.75;;;3.10;49.16
38452;BME280;24231;52.514;13.438;2023-03-17T04:10:18;101177.29;;;2.87;49.75
38452;BME280;24231;52.514;13.438;2023-03-17T04:12:46;101163.87;;;3.22;49.22
38452;BME280;24231;52.514;13.438;2023-03-17T04:15:15;101165.16;;;3.13;49.30
38452;BME280;24231;52.514;13.438;2023-03-17T04:17:43;101158.72;;;3.17;49.08
38452;BME280;24231;52.514;13.438;2023-03-17T04:20:12;101160.23;;;3.17;48.77
38452;BME280;24231;52.514;13.438;2023-03-17T04:22:43;101154.63;;;3.31;48.40
38452;BME280;24231;52.514;13.438;2023-03-17T04:25:11;101154.76;;;3.17;48.22
38452;BME280;24231;52.514;13.438;2023-03-17T04:27:39;101152.92;;;3.16;48.12
38452;BME280;24231;52.514;13.438;2023-03-17T04:30:10;101144.21;;;3.11;48.64
38452;BME280;24231;52.514;13.438;2023-03-17T04:32:37;101144.19;;;2.83;49.57
38452;BME280;24231;52.514;13.438;2023-03-17T04:35:06;101131.09;;;2.81;49.69
38452;BME280;24231;52.514;13.438;2023-03-17T04:37:33;101129.59;;;2.77;49.35
38452;BME280;24231;52.514;13.438;2023-03-17T04:40:01;101129.55;;;3.17;48.65
38452;BME280;24231;52.514;13.438;2023-03-17T04:42:28;101130.19;;;2.92;49.34
38452;BME280;24231;52.514;13.438;2023-03-17T04:44:56;101135.49;;;2.87;49.42
38452;BME280;24231;52.514;13.438;2023-03-17T04:47:23;101146.36;;;2.72;49.30
38452;BME280;24231;52.514;13.438;2023-03-17T04:49:50;101142.26;;;2.87;49.09
38452;BME280;24231;52.514;13.438;2023-03-17T04:52:18;101135.76;;;2.97;49.04
38452;BME280;24231;52.514;13.438;2023-03-17T04:54:45;101142.55;;;3.10;48.85
38452;BME280;24231;52.514;13.438;2023-03-17T04:57:12;101149.03;;;3.03;48.93
38452;BME280;24231;52.514;13.438;2023-03-17T04:59:39;101138.35;;;2.89;48.71
38452;BME280;24231;52.514;13.438;2023-03-17T05:02:07;101140.69;;;2.86;48.84
38452;BME280;24231;52.514;13.438;2023-03-17T05:04:36;101132.56;;;2.86;49.06
38452;BME280;24231;52.514;13.438;2023-03-17T05:07:03;101133.80;;;3.03;48.67
38452;BME280;24231;52.514;13.438;2023-03-17T05:09:31;101141.01;;;2.77;49.13
38452;BME280;24231;52.514;13.438;2023-03-17T05:11:58;101130.62;;;2.32;48.66
38452;BME280;24231;52.514;13.438;2023-03-17T05:14:26;101129.00;;;3.22;47.64
38452;BME280;24231;52.514;13.438;2023-03-17T05:16:54;101126.33;;;2.99;48.35
38452;BME280;24231;52.514;13.438;2023-03-17T05:19:20;101105.04;;;3.22;47.59
38452;BME280;24231;52.514;13.438;2023-03-17T05:21:48;101110.09;;;3.00;48.57
38452;BME280;24231;52.514;13.438;2023-03-17T05:24:15;101112.90;;;2.69;48.98
38452;BME280;24231;52.514;13.438;2023-03-17T05:26:42;101121.01;;;2.78;48.96
38452;BME280;24231;52.514;13.438;2023-03-17T05:29:10;101117.37;;;2.99;48.46
38452;BME280;24231;52.514;13.438;2023-03-17T05:31:37;101123.11;;;3.03;48.19
38452;BME280;24231;52.514;13.438;2023-03-17T05:34:04;101134.05;;;3.00;48.26
38452;BME280;24231;52.514;13.438;2023-03-17T05:36:32;101124.07;;;2.83;48.21
38452;BME280;24231;52.514;13.438;2023-03-17T05:38:59;101123.13;;;3.06;47.27
38452;BME280;24231;52.514;13.438;2023-03-17T05:41:27;101122.52;;;3.21;47.28
38452;BME280;24231;52.514;13.438;2023-03-17T05:43:53;101119.66;;;3.09;47.59
38452;BME280;24231;52.514;13.438;2023-03-17T05:46:21;101130.35;;;3.24;47.51
38452;BME280;24231;52.514;13.438;2023-03-17T05:48:48;101128.90;;;3.04;47.71
38452;BME280;24231;52.514;13.438;2023-03-17T05:51:15;101121.77;;;3.23;47.09
38452;BME280;24231;52.514;13.438;2023-03-17T05:53:43;101131.34;;;3.14;47.38
38452;BME280;24231;52.514;13.438;2023-03-17T05:56:12;101131.80;;;3.45;46.53
38452;BME280;24231;52.514;13.438;2023-03-17T05:58:40;101132.34;;;3.40;46.65
38452;BME280;24231;52.514;13.438;2023-03-17T06:01:09;101140.81;;;3.39;46.21
38452;BME280;24231;52.514;13.438;2023-03-17T06:03:37;101134.26;;;3.44;46.38
38452;BME280;24231;52.514;13.438;2023-03-17T06:06:06;101132.05;;;3.28;46.66
38452;BME280;24231;52.514;13.438;2023-03-17T06:08:33;101133.93;;;2.96;46.51
38452;BME280;24231;52.514;13.438;2023-03-17T06:11:04;101125.52;;;3.54;45.80
38452;BME280;24231;52.514;13.438;2023-03-17T06:13:31;101119.21;;;3.41;46.20
38452;BME280;24231;52.514;13.438;2023-03-17T06:15:59;101113.89;;;3.33;46.61
38452;BME280;24231;52.514;13.438;2023-03-17T06:18:36;101112.05;;;3.29;46.85
38452;BME280;24231;52.514;13.438;2023-03-17T06:21:04;101110.39;;;3.25;46.89
38452;BME280;24231;52.514;13.438;2023-03-17T06:23:31;101119.86;;;3.20;46.98
38452;BME280;24231;52.514;13.438;2023-03-17T06:25:58;101132.99;;;3.52;46.46
38452;BME280;24231;52.514;13.438;2023-03-17T06:28:26;101127.71;;;3.36;46.96
38452;BME280;24231;52.514;13.438;2023-03-17T06:30:53;101127.93;;;3.54;46.26
38452;BME280;24231;52.514;13.438;2023-03-17T06:33:21;101118.99;;;3.22;46.94
38452;BME280;24231;52.514;13.438;2023-03-17T06:35:48;101122.61;;;3.13;47.22
38452;BME280;24231;52.514;13.438;2023-03-17T06:38:15;101117.08;;;3.34;46.92
38452;BME280;24231;52.514;13.438;2023-03-17T06:41:45;101114.33;;;3.42;46.80
38452;BME280;24231;52.514;13.438;2023-03-17T06:44:12;101112.99;;;3.33;46.62
38452;BME280;24231;52.514;13.438;2023-03-17T06:46:40;101113.51;;;3.35;46.56
38452;BME280;24231;52.514;13.438;2023-03-17T06:49:07;101110.92;;;3.03;47.08
38452;BME280;24231;52.514;13.438;2023-03-17T06:51:35;101106.00;;;3.32;46.73
38452;BME280;24231;52.514;13.438;2023-03-17T06:54:03;101095.17;;;3.22;47.14
38452;BME280;24231;52.514;13.438;2023-03-17T06:56:30;101094.69;;;3.25;47.18
38452;BME280;24231;52.514;13.438;2023-03-17T06:58:57;101093.58;;;3.24;46.97
38452;BME280;24231;52.514;13.438;2023-03-17T07:01:26;101095.38;;;3.31;46.84
38452;BME280;24231;52.514;13.438;2023-03-17T07:03:53;101096.66;;;3.32;46.82
38452;BME280;24231;52.514;13.438;2023-03-17T07:06:20;101099.20;;;3.65;46.31
38452;BME280;24231;52.514;13.438;2023-03-17T07:08:48;101098.40;;;3.60;46.05
38452;BME280;24231;52.514;13.438;2023-03-17T07:11:16;101086.68;;;3.72;45.72
38452;BME280;24231;52.514;13.438;2023-03-17T07:13:43;101101.63;;;3.58;45.93
38452;BME280;24231;52.514;13.438;2023-03-17T07:16:12;101099.14;;;3.81;45.63
38452;BME280;24231;52.514;13.438;2023-03-17T07:18:39;101084.71;;;3.63;45.78
38452;BME280;24231;52.514;13.438;2023-03-17T07:21:07;101068.99;;;3.87;45.49
38452;BME280;24231;52.514;13.438;2023-03-17T07:23:45;101074.54;;;3.89;45.44
38452;BME280;24231;52.514;13.438;2023-03-17T07:26:13;101069.22;;;3.82;45.47
38452;BME280;24231;52.514;13.438;2023-03-17T07:33:53;101066.91;;;4.54;44.14
38452;BME280;24231;52.514;13.438;2023-03-17T07:36:20;101047.35;;;4.88;42.79
38452;BME280;24231;52.514;13.438;2023-03-17T07:38:47;101043.33;;;5.13;42.35
38452;BME280;24231;52.514;13.438;2023-03-17T07:41:15;101059.01;;;5.36;41.93
38452;BME280;24231;52.514;13.438;2023-03-17T07:43:42;101045.71;;;5.43;41.64
38452;BME280;24231;52.514;13.438;2023-03-17T07:46:09;101028.21;;;5.57;41.19
38452;BME280;24231;52.514;13.438;2023-03-17T07:48:38;101034.77;;;5.53;41.13
38452;BME280;24231;52.514;13.438;2023-03-17T07:51:07;101062.16;;;5.38;41.23
38452;BME280;24231;52.514;13.438;2023-03-17T07:53:35;101051.29;;;5.41;41.24
38452;BME280;24231;52.514;13.438;2023-03-17T07:56:03;101073.01;;;5.20;41.56
38452;BME280;24231;52.514;13.438;2023-03-17T07:58:30;101068.75;;;5.35;41.28
38452;BME280;24231;52.514;13.438;2023-03-17T08:00:57;101069.75;;;5.59;40.74
38452;BME280;24231;52.514;13.438;2023-03-17T08:03:28;101062.82;;;6.27;39.46
38452;BME280;24231;52.514;13.438;2023-03-17T08:05:56;101055.07;;;6.76;38.82
38452;BME280;24231;52.514;13.438;2023-03-17T08:08:24;101060.03;;;6.58;38.40
38452;BME280;24231;52.514;13.438;2023-03-17T08:10:51;101047.73;;;6.90;37.87
38452;BME280;24231;52.514;13.438;2023-03-17T08:13:19;101068.03;;;6.99;37.54
38452;BME280;24231;52.514;13.438;2023-03-17T08:15:46;101058.66;;;7.14;36.67
38452;BME280;24231;52.514;13.438;2023-03-17T08:18:13;101048.49;;;7.71;35.99
38452;BME280;24231;52.514;13.438;2023-03-17T08:20:40;101046.25;;;7.91;35.44
38452;BME280;24231;52.514;13.438;2023-03-17T08:23:08;101048.80;;;7.75;35.63
38452;BME280;24231;52.514;13.438;2023-03-17T08:25:35;101046.41;;;7.16;36.45
38452;BME280;24231;52.514;13.438;2023-03-17T08:28:03;101033.99;;;7.12;36.41
38452;BME280;24231;52.514;13.438;2023-03-17T08:30:31;101028.48;;;7.33;36.27
38452;BME280;24231;52.514;13.438;2023-03-17T08:32:58;101035.80;;;7.09;36.57
38452;BME280;24231;52.514;13.438;2023-03-17T08:35:25;101034.43;;;6.82;37.05
38452;BME280;24231;52.514;13.438;2023-03-17T08:37:52;101029.82;;;6.64;37.49
38452;BME280;24231;52.514;13.438;2023-03-17T08:40:40;101038.89;;;7.06;37.18
38452;BME280;24231;52.514;13.438;2023-03-17T08:43:07;101043.62;;;6.98;37.17
38452;BME280;24231;52.514;13.438;2023-03-17T08:45:35;101045.87;;;7.01;37.10
38452;BME280;24231;52.514;13.438;2023-03-17T08:48:02;101035.37;;;7.09;37.22
38452;BME280;24231;52.514;13.438;2023-03-17T08:50:29;101016.33;;;6.88;37.56
38452;BME280;24231;52.514;13.438;2023-03-17T08:52:57;101015.85;;;6.68;37.56
38452;BME280;24231;52.514;13.438;2023-03-17T08:55:24;101000.43;;;6.72;38.19
38452;BME280;24231;52.514;13.438;2023-03-17T08:57:52;101012.35;;;6.54;38.42
38452;BME280;24231;52.514;13.438;2023-03-17T09:00:20;100998.25;;;6.66;37.99
38452;BME280;24231;52.514;13.438;2023-03-17T09:02:57;100990.33;;;6.81;37.93
38452;BME280;24231;52.514;13.438;2023-03-17T09:05:24;100985.53;;;6.83;37.81
38452;BME280;24231;52.514;13.438;2023-03-17T09:07:52;100995.05;;;6.74;37.99
38452;BME280;24231;52.514;13.438;2023-03-17T09:10:19;100997.55;;;6.76;37.60
38452;BME280;24231;52.514;13.438;2023-03-17T09:12:46;100986.60;;;6.63;38.18
38452;BME280;24231;52.514;13.438;2023-03-17T09:15:13;100988.16;;;6.63;38.14
38452;BME280;24231;52.514;13.438;2023-03-17T09:17:41;100987.33;;;6.90;38.00
38452;BME280;24231;52.514;13.438;2023-03-17T09:20:09;100983.03;;;6.97;38.08
38452;BME280;24231;52.514;13.438;2023-03-17T09:22:37;100981.80;;;6.98;37.70
38452;BME280;24231;52.514;13.438;2023-03-17T09:25:05;100986.27;;;7.08;37.36
38452;BME280;24231;52.514;13.438;2023-03-17T09:27:32;100978.99;;;7.10;37.15
38452;BME280;24231;52.514;13.438;2023-03-17T09:29:59;100984.20;;;7.35;37.00
38452;BME280;24231;52.514;13.438;2023-03-17T09:32:26;100979.57;;;7.32;37.12
38452;BME280;24231;52.514;13.438;2023-03-17T09:34:54;100972.30;;;8.52;35.27
38452;BME280;24231;52.514;13.438;2023-03-17T09:37:21;100973.94;;;7.82;36.20
38452;BME280;24231;52.514;13.438;2023-03-17T09:39:48;100977.24;;;7.78;36.31
38452;BME280;24231;52.514;13.438;2023-03-17T09:42:35;100974.42;;;8.23;35.40
38452;BME280;24231;52.514;13.438;2023-03-17T09:45:26;100979.61;;;8.04;36.07
38452;BME280;24231;52.514;13.438;2023-03-17T09:48:07;100979.02;;;8.66;35.00
38452;BME280;24231;52.514;13.438;2023-03-17T09:50:42;100976.88;;;8.69;35.18
38452;BME280;24231;52.514;13.438;2023-03-17T09:53:17;100978.22;;;8.99;34.55
38452;BME280;24231;52.514;13.438;2023-03-17T09:55:48;100972.11;;;9.55;34.05
38452;BME280;24231;52.514;13.438;2023-03-17T09:58:21;100970.09;;;9.37;33.49
38452;BME280;24231;52.514;13.438;2023-03-17T10:00:52;100970.56;;;10.16;32.53
38452;BME280;24231;52.514;13.438;2023-03-17T10:03:19;100969.60;;;9.81;32.91
38452;BME280;24231;52.514;13.438;2023-03-17T10:05:47;100956.41;;;9.87;32.91
38452;BME280;24231;52.514;13.438;2023-03-17T10:08:16;100945.91;;;10.18;32.35
38452;BME280;24231;52.514;13.438;2023-03-17T10:10:49;100944.12;;;10.24;32.74
38452;BME280;24231;52.514;13.438;2023-03-17T10:13:27;100947.48;;;10.19;32.75
38452;BME280;24231;52.514;13.438;2023-03-17T10:16:04;100944.61;;;10.11;32.36
38452;BME280;24231;52.514;13.438;2023-03-17T10:18:42;100952.41;;;10.27;32.23
38452;BME280;24231;52.514;13.438;2023-03-17T10:21:17;100952.15;;;10.83;31.21
38452;BME280;24231;52.514;13.438;2023-03-17T10:23:47;100955.71;;;10.98;31.07
38452;BME280;24231;52.514;13.438;2023-03-17T10:26:24;100955.79;;;10.91;30.82
38452;BME280;24231;52.514;13.438;2023-03-17T10:28:52;100956.34;;;10.71;31.26
38452;BME280;24231;52.514;13.438;2023-03-17T10:31:26;100956.29;;;10.37;31.60
38452;BME280;24231;52.514;13.438;2023-03-17T10:33:54;100953.96;;;10.36;31.82
38452;BME280;24231;52.514;13.438;2023-03-17T10:36:34;100952.49;;;10.45;31.81
38452;BME280;24231;52.514;13.438;2023-03-17T10:39:03;100945.85;;;10.40;31.88
38452;BME280;24231;52.514;13.438;2023-03-17T10:41:32;100946.82;;;10.37;32.17
38452;BME280;24231;52.514;13.438;2023-03-17T10:44:01;100947.59;;;10.17;32.50
38452;BME280;24231;52.514;13.438;2023-03-17T10:46:34;100939.41;;;10.05;32.40
38452;BME280;24231;52.514;13.438;2023-03-17T10:49:06;100938.48;;;10.05;32.62
38452;BME280;24231;52.514;13.438;2023-03-17T10:51:35;100934.83;;;10.46;32.19
38452;BME280;24231;52.514;13.438;2023-03-17T10:54:08;100928.08;;;10.52;32.28
38452;BME280;24231;52.514;13.438;2023-03-17T10:56:37;100925.69;;;10.42;32.61
38452;BME280;24231;52.514;13.438;2023-03-17T10:59:07;100929.27;;;10.17;32.89
38452;BME280;24231;52.514;13.438;2023-03-17T11:01:38;100924.64;;;10.48;32.70
38452;BME280;24231;52.514;13.438;2023-03-17T11:04:27;100919.56;;;10.67;32.60
38452;BME280;24231;52.514;13.438;2023-03-17T11:06:57;100916.22;;;10.71;32.30
38452;BME280;24231;52.514;13.438;2023-03-17T11:09:25;100915.30;;;11.07;31.83
38452;BME280;24231;52.514;13.438;2023-03-17T11:12:01;100914.02;;;10.79;32.03
38452;BME280;24231;52.514;13.438;2023-03-17T11:14:28;100903.51;;;10.93;31.66
38452;BME280;24231;52.514;13.438;2023-03-17T11:16:57;100905.77;;;10.77;32.03
38452;BME280;24231;52.514;13.438;2023-03-17T11:19:32;100900.64;;;11.22;31.68
38452;BME280;24231;52.514;13.438;2023-03-17T11:22:06;100903.70;;;11.38;31.70
38452;BME280;24231;52.514;13.438;2023-03-17T11:24:52;100906.75;;;10.73;31.96
38452;BME280;24231;52.514;13.438;2023-03-17T11:27:30;100898.60;;;11.08;31.94
38452;BME280;24231;52.514;13.438;2023-03-17T11:30:15;100897.83;;;11.20;31.66
38452;BME280;24231;52.514;13.438;2023-03-17T11:32:47;100896.94;;;11.00;31.90
38452;BME280;24231;52.514;13.438;2023-03-17T11:35:44;100893.03;;;11.11;31.61
38452;BME280;24231;52.514;13.438;2023-03-17T11:38:21;100892.01;;;11.29;31.76
38452;BME280;24231;52.514;13.438;2023-03-17T11:41:09;100888.47;;;11.09;31.51
38452;BME280;24231;52.514;13.438;2023-03-17T11:43:51;100888.59;;;11.16;31.71
38452;BME280;24231;52.514;13.438;2023-03-17T11:46:26;100896.46;;;11.10;32.00
38452;BME280;24231;52.514;13.438;2023-03-17T11:48:57;100887.31;;;11.12;31.19
38452;BME280;24231;52.514;13.438;2023-03-17T11:51:32;100889.01;;;10.87;31.92
38452;BME280;24231;52.514;13.438;2023-03-17T11:54:07;100891.30;;;10.85;32.09
38452;BME280;24231;52.514;13.438;2023-03-17T11:56:40;100883.55;;;11.23;31.61
38452;BME280;24231;52.514;13.438;2023-03-17T11:59:25;100879.35;;;11.49;31.54
38452;BME280;24231;52.514;13.438;2023-03-17T12:02:03;100885.01;;;11.04;31.75
38452;BME280;24231;52.514;13.438;2023-03-17T12:04:35;100879.08;;;11.05;31.73
38452;BME280;24231;52.514;13.438;2023-03-17T12:07:11;100872.66;;;11.17;31.80
38452;BME280;24231;52.514;13.438;2023-03-17T12:09:45;100878.42;;;10.87;31.73
38452;BME280;24231;52.514;13.438;2023-03-17T12:12:22;100868.57;;;11.08;31.68
38452;BME280;24231;52.514;13.438;2023-03-17T12:14:53;100867.87;;;11.23;31.43
38452;BME280;24231;52.514;13.438;2023-03-17T12:17:25;100864.52;;;11.02;32.30
38452;BME280;24231;52.514;13.438;2023-03-17T12:20:03;100857.58;;;11.41;31.72
38452;BME280;24231;52.514;13.438;2023-03-17T12:22:38;100856.03;;;11.29;31.92
38452;BME280;24231;52.514;13.438;2023-03-17T12:25:13;100854.14;;;11.20;32.32
38452;BME280;24231;52.514;13.438;2023-03-17T12:27:49;100858.97;;;11.12;32.72
38452;BME280;24231;52.514;13.438;2023-03-17T12:30:25;100848.08;;;11.15;32.70
38452;BME280;24231;52.514;13.438;2023-03-17T12:32:59;100848.26;;;11.57;32.29
38452;BME280;24231;52.514;13.438;2023-03-17T12:35:30;100849.55;;;11.60;32.27
38452;BME280;24231;52.514;13.438;2023-03-17T12:38:00;100849.22;;;11.30;32.75
38452;BME280;24231;52.514;13.438;2023-03-17T12:40:32;100847.72;;;11.21;33.05
38452;BME280;24231;52.514;13.438;2023-03-17T12:43:30;100840.49;;;11.36;32.49
38452;BME280;24231;52.514;13.438;2023-03-17T12:46:14;100839.98;;;11.15;32.73
38452;BME280;24231;52.514;13.438;2023-03-17T12:49:00;100827.44;;;11.59;31.88
38452;BME280;24231;52.514;13.438;2023-03-17T12:51:41;100836.84;;;11.30;32.06
38452;BME280;24231;52.514;13.438;2023-03-17T12:54:17;100813.29;;;11.30;31.94
38452;BME280;24231;52.514;13.438;2023-03-17T12:56:46;100810.75;;;11.44;31.71
38452;BME280;24231;52.514;13.438;2023-03-17T12:59:17;100812.33;;;11.26;32.17
38452;BME280;24231;52.514;13.438;2023-03-17T13:01:53;100807.79;;;11.29;32.33
38452;BME280;24231;52.514;13.438;2023-03-17T13:04:24;100806.97;;;11.37;32.66
38452;BME280;24231;52.514;13.438;2023-03-17T13:06:58;100805.55;;;11.48;32.63
38452;BME280;24231;52.514;13.438;2023-03-17T13:09:41;100807.52;;;11.54;32.32
38452;BME280;24231;52.514;13.438;2023-03-17T13:12:54;100809.53;;;11.51;32.22